MMTC/TRC METAR and TAF weather

Enter ICAO airport designator
Station Type Date Time Source
MMTC METAR 2021/06/24 02:40 UTC NOAA

MMTC 240240Z 00000KT 8SM SCT030 BKN070 33/14 A2997 RMK SLP031 52007 960 8/460


Station Type Date Time Source
MMTC Decoded METAR 2021/06/24 02:40 UTC NOAA

Torreon, Coah., Mexico (MMTC) 25-32N 103-27W 1150M
Jun 23, 2021 - 10:40 PM EDT / 2021.06.24 0240 UTC
Wind: Calm:0
Visibility: 8 mile(s):0
Sky conditions: mostly cloudy
Temperature: 91 F (33 C)
Dew Point: 57 F (14 C)
Relative Humidity: 31%
Pressure (altimeter): 29.97 in. Hg (1014 hPa)
Pressure tendency: 0.02 inches (0.7 hPa) higher than three hours ago
ob: MMTC 240240Z 00000KT 8SM SCT030 BKN070 33/14 A2997 RMK SLP031 52007 960 8/460
cycle: 2

Station Type Date Time Source
MMTC TAF 2021/06/24 06:32 UTC NOAA

TAF MMTC 240524Z 2406/2506 00000KT P6SM SCT030 BKN070
FM241800 12010KT P6SM SCT030 BKN100 PROB40 2500/2504 5SM TSRA BKN030CB

Example: see airport list